createdAt,value
2019-03-05T00:00:40.542Z,58.20
2019-03-05T00:03:09.330Z,57.40
2019-03-05T00:05:38.063Z,56.80
2019-03-05T00:08:08.793Z,56.30
2019-03-05T00:10:37.492Z,56.50
2019-03-05T00:13:06.083Z,57.10
2019-03-05T00:15:36.999Z,57.50
2019-03-05T00:18:08.303Z,57.80
2019-03-05T00:20:37.415Z,58.30
2019-03-05T00:23:13.726Z,58.70
2019-03-05T00:25:45.233Z,59.70
2019-03-05T00:28:25.272Z,59.70
2019-03-05T00:31:05.719Z,60.40
2019-03-05T00:34:01.656Z,60.70
2019-03-05T00:36:34.535Z,61.30
2019-03-05T00:39:25.664Z,61.90
2019-03-05T00:42:31.372Z,62.50
2019-03-05T00:45:18.156Z,63.20
2019-03-05T00:48:02.127Z,64.20
2019-03-05T00:50:45.474Z,64.90
2019-03-05T00:53:22.933Z,65.40
2019-03-05T00:56:18.388Z,65.50
2019-03-05T00:59:03.945Z,66.00
2019-03-05T01:01:46.538Z,66.40
2019-03-05T01:04:29.668Z,66.70
2019-03-05T01:06:59.871Z,67.00
2019-03-05T01:09:28.749Z,66.90
2019-03-05T01:11:57.405Z,67.10
2019-03-05T01:14:26.224Z,67.30
2019-03-05T01:16:57.508Z,67.50
2019-03-05T01:19:29.088Z,67.90
2019-03-05T01:22:01.280Z,68.40
2019-03-05T01:24:30.007Z,68.30
2019-03-05T01:26:59.330Z,68.50
2019-03-05T01:29:27.973Z,68.80
2019-03-05T01:31:58.381Z,69.10
2019-03-05T01:34:28.909Z,69.40
2019-03-05T01:36:59.260Z,69.50
2019-03-05T01:39:35.318Z,69.50
2019-03-05T01:42:05.619Z,69.90
2019-03-05T01:44:34.299Z,70.00
2019-03-05T01:47:04.797Z,70.10
2019-03-05T01:49:38.316Z,70.70
2019-03-05T01:52:08.181Z,70.20
2019-03-05T01:54:36.963Z,70.00
2019-03-05T01:57:05.664Z,70.30
2019-03-05T01:59:35.067Z,70.20
2019-03-05T02:02:05.027Z,70.00
2019-03-05T02:04:35.060Z,69.60
2019-03-05T02:07:15.112Z,69.50
2019-03-05T02:09:43.900Z,69.40
2019-03-05T02:12:12.841Z,69.40
2019-03-05T02:14:45.671Z,69.10
2019-03-05T02:17:14.470Z,69.00
2019-03-05T02:19:48.077Z,68.80
2019-03-05T02:22:23.939Z,68.60
2019-03-05T02:25:16.379Z,68.00
2019-03-05T02:28:13.070Z,68.30
2019-03-05T02:31:07.621Z,68.00
2019-03-05T02:33:57.475Z,67.90
2019-03-05T02:36:37.951Z,67.80
2019-03-05T02:39:44.104Z,68.00
2019-03-05T02:42:43.446Z,67.90
2019-03-05T02:45:34.085Z,67.70
2019-03-05T02:48:44.260Z,67.90
2019-03-05T02:51:24.827Z,68.00
2019-03-05T02:54:36.852Z,67.90
2019-03-05T02:57:09.322Z,67.70
2019-03-05T02:59:38.589Z,67.90
2019-03-05T03:02:10.546Z,67.70
2019-03-05T03:04:43.863Z,67.90
2019-03-05T03:07:13.411Z,67.60
2019-03-05T03:09:53.731Z,67.50
2019-03-05T03:12:22.481Z,67.80
2019-03-05T03:14:51.322Z,67.70
2019-03-05T03:17:20.179Z,67.90
2019-03-05T03:19:50.510Z,67.60
2019-03-05T03:22:20.814Z,67.70
2019-03-05T03:24:54.291Z,67.40
2019-03-05T03:27:20.557Z,67.50
2019-03-05T03:29:58.524Z,67.40
2019-03-05T03:32:26.453Z,67.30
2019-03-05T03:34:55.836Z,67.50
2019-03-05T03:37:26.421Z,67.00
2019-03-05T03:39:55.266Z,67.00
2019-03-05T03:42:24.047Z,67.00
2019-03-05T03:44:56.009Z,66.90
2019-03-05T03:47:24.642Z,66.70
2019-03-05T03:49:54.164Z,66.60
2019-03-05T03:52:23.049Z,66.70
2019-03-05T03:55:03.172Z,66.60
2019-03-05T03:57:37.243Z,66.40
2019-03-05T04:00:08.627Z,66.20
2019-03-05T04:02:46.219Z,66.30
2019-03-05T04:05:12.217Z,66.20
2019-03-05T04:07:42.392Z,66.00
2019-03-05T04:10:15.223Z,65.90
2019-03-05T04:12:44.648Z,65.70
2019-03-05T04:15:21.160Z,65.90
2019-03-05T04:17:50.041Z,66.10
2019-03-05T04:20:26.989Z,65.90
2019-03-05T04:22:57.465Z,65.70
2019-03-05T04:25:28.714Z,66.00
2019-03-05T04:28:05.225Z,67.00
2019-03-05T04:30:34.087Z,65.70
2019-03-05T04:33:02.829Z,65.70
2019-03-05T04:35:31.715Z,65.70
2019-03-05T04:38:03.012Z,65.70
2019-03-05T04:40:42.629Z,65.40
2019-03-05T04:43:04.288Z,65.50
2019-03-05T04:45:39.498Z,65.60
2019-03-05T04:48:08.383Z,65.60
2019-03-05T04:50:56.876Z,65.30
2019-03-05T04:53:28.178Z,65.50
2019-03-05T04:55:57.315Z,65.80
2019-03-05T04:58:26.041Z,65.80
2019-03-05T05:00:54.872Z,66.00
2019-03-05T05:03:29.438Z,66.10
2019-03-05T05:05:58.380Z,66.30
2019-03-05T05:08:27.123Z,66.60
2019-03-05T05:11:02.178Z,66.60
2019-03-05T05:13:32.349Z,66.90
2019-03-05T05:16:03.783Z,66.70
2019-03-05T05:18:37.992Z,66.50
2019-03-05T05:21:32.058Z,66.50
2019-03-05T05:24:08.613Z,67.00
2019-03-05T05:29:38.019Z,66.80
2019-03-05T05:32:08.242Z,66.70
2019-03-05T05:34:38.202Z,66.30
2019-03-05T05:37:16.311Z,66.50
2019-03-05T05:40:22.573Z,66.40
2019-03-05T05:42:54.215Z,66.40
2019-03-05T05:45:29.482Z,66.60
2019-03-05T05:47:58.159Z,66.60
2019-03-05T05:50:28.121Z,66.60
2019-03-05T05:53:04.332Z,66.70
2019-03-05T05:55:40.130Z,66.60
2019-03-05T05:58:11.650Z,66.70
2019-03-05T06:03:40.600Z,66.20
2019-03-05T06:06:23.690Z,66.00
2019-03-05T06:08:58.229Z,65.50
2019-03-05T06:11:31.065Z,64.60
2019-03-05T06:13:59.815Z,64.10
2019-03-05T06:16:32.985Z,64.10
2019-03-05T06:19:01.987Z,64.40
2019-03-05T06:21:33.356Z,64.00
2019-03-05T06:24:03.732Z,64.20
2019-03-05T06:26:32.771Z,62.50
2019-03-05T06:29:04.540Z,61.30
2019-03-05T06:31:33.266Z,59.50
2019-03-05T06:34:04.540Z,57.60
2019-03-05T06:36:54.961Z,56.50
2019-03-05T06:39:23.744Z,56.00
2019-03-05T06:41:55.635Z,55.70
2019-03-05T06:44:25.555Z,54.60
2019-03-05T06:46:58.470Z,53.20
2019-03-05T06:49:33.232Z,52.60
2019-03-05T06:52:11.903Z,52.50
2019-03-05T06:54:50.189Z,52.50
2019-03-05T06:57:18.776Z,52.20
2019-03-05T06:59:54.073Z,52.50
2019-03-05T07:02:24.610Z,52.20
2019-03-05T07:05:00.920Z,52.30
2019-03-05T07:07:42.504Z,51.90
2019-03-05T07:10:24.589Z,52.50
2019-03-05T07:12:55.976Z,53.10
2019-03-05T07:15:52.098Z,55.10
2019-03-05T07:18:24.445Z,56.70
2019-03-05T07:21:19.636Z,57.80
2019-03-05T07:24:14.494Z,56.90
2019-03-05T07:26:44.366Z,57.90
2019-03-05T07:29:13.160Z,56.20
2019-03-05T07:31:41.870Z,54.60
2019-03-05T07:34:16.550Z,53.30
2019-03-05T07:36:45.197Z,52.60
2019-03-05T07:39:24.877Z,52.10
2019-03-05T07:41:53.899Z,51.30
2019-03-05T07:44:25.772Z,50.00
2019-03-05T07:46:54.709Z,50.60
2019-03-05T07:49:25.181Z,50.70
2019-03-05T07:51:56.578Z,50.90
2019-03-05T07:54:26.365Z,51.10
2019-03-05T07:56:56.530Z,51.20
2019-03-05T07:59:29.600Z,51.40
2019-03-05T08:02:03.179Z,51.70
2019-03-05T08:04:36.367Z,50.40
2019-03-05T08:07:11.553Z,50.00
2019-03-05T08:09:42.170Z,49.00
2019-03-05T08:12:16.998Z,49.60
2019-03-05T08:15:12.794Z,50.00
2019-03-05T08:17:42.068Z,50.90
2019-03-05T08:20:16.591Z,51.80
2019-03-05T08:22:48.006Z,51.10
2019-03-05T08:25:17.242Z,50.90
2019-03-05T08:27:47.290Z,51.90
2019-03-05T08:30:19.382Z,53.80
2019-03-05T08:32:53.493Z,55.10
2019-03-05T08:35:25.152Z,56.10
2019-03-05T08:37:57.740Z,56.50
2019-03-05T08:40:27.529Z,55.90
2019-03-05T08:42:56.268Z,56.10
2019-03-05T08:45:29.552Z,56.40
2019-03-05T08:48:01.791Z,57.10
2019-03-05T08:50:30.639Z,57.30
2019-03-05T08:53:00.319Z,57.60
2019-03-05T08:55:31.472Z,58.30
2019-03-05T08:58:03.817Z,57.90
2019-03-05T09:00:34.098Z,57.60
2019-03-05T09:03:02.946Z,57.60
2019-03-05T09:05:31.821Z,58.30
2019-03-05T09:08:01.301Z,57.60
2019-03-05T09:10:32.051Z,57.60
2019-03-05T09:13:09.533Z,57.20
2019-03-05T09:15:39.604Z,57.60
2019-03-05T09:18:10.748Z,57.30
2019-03-05T09:20:39.728Z,56.50
2019-03-05T09:23:09.161Z,56.80
2019-03-05T09:25:39.408Z,57.00
2019-03-05T09:28:11.746Z,56.70
2019-03-05T09:30:40.503Z,56.70
2019-03-05T09:33:11.469Z,57.10
2019-03-05T09:35:46.185Z,55.80
2019-03-05T09:38:17.424Z,55.50
2019-03-05T09:40:47.939Z,55.50
2019-03-05T09:43:16.906Z,53.70
2019-03-05T09:45:46.456Z,52.30
2019-03-05T09:48:15.330Z,51.90
2019-03-05T09:50:46.248Z,50.90
2019-03-05T09:53:19.177Z,50.10
2019-03-05T09:55:51.291Z,49.90
2019-03-05T09:58:22.246Z,49.50
2019-03-05T10:00:59.991Z,48.30
2019-03-05T10:03:30.108Z,48.00
2019-03-05T10:06:00.507Z,47.30
2019-03-05T10:08:33.026Z,47.60
2019-03-05T10:11:03.223Z,46.90
2019-03-05T10:13:42.756Z,48.60
2019-03-05T10:16:12.032Z,50.00
2019-03-05T10:18:41.228Z,50.20
2019-03-05T10:21:12.394Z,50.40
2019-03-05T10:23:42.607Z,50.00
2019-03-05T10:26:12.690Z,50.70
2019-03-05T10:28:41.713Z,51.60
2019-03-05T10:31:12.693Z,53.30
2019-03-05T10:33:48.570Z,54.50
2019-03-05T10:36:17.336Z,55.10
2019-03-05T10:38:57.184Z,55.60
2019-03-05T10:41:21.616Z,56.30
2019-03-05T10:43:54.681Z,56.30
2019-03-05T10:46:26.060Z,56.70
2019-03-05T10:48:55.711Z,57.40
2019-03-05T10:51:25.005Z,57.30
2019-03-05T10:53:55.350Z,57.40
2019-03-05T10:56:26.863Z,56.30
2019-03-05T10:58:55.646Z,56.10
2019-03-05T11:01:25.974Z,56.50
2019-03-05T11:03:56.895Z,56.20
2019-03-05T11:06:25.885Z,56.50
2019-03-05T11:08:54.687Z,56.90
2019-03-05T11:11:27.225Z,57.50
2019-03-05T11:13:57.388Z,57.70
2019-03-05T11:16:30.996Z,58.40
2019-03-05T11:19:01.159Z,58.40
2019-03-05T11:21:30.468Z,59.20
2019-03-05T11:23:59.341Z,59.30
2019-03-05T11:26:29.387Z,59.60
2019-03-05T11:29:01.473Z,60.20
2019-03-05T11:31:34.233Z,61.40
2019-03-05T11:34:03.565Z,62.50
2019-03-05T11:36:32.525Z,63.70
2019-03-05T11:39:01.431Z,64.20
2019-03-05T11:41:30.180Z,65.00
2019-03-05T11:43:58.935Z,65.00
2019-03-05T11:46:30.856Z,65.50
2019-03-05T11:48:59.711Z,65.60
2019-03-05T11:51:31.539Z,66.40
2019-03-05T11:53:59.922Z,66.30
2019-03-05T11:56:30.687Z,66.40
2019-03-05T11:59:00.404Z,66.60
2019-03-05T12:01:31.314Z,65.90
2019-03-05T12:04:00.103Z,66.00
2019-03-05T12:06:28.793Z,65.60
2019-03-05T12:08:58.049Z,65.70
2019-03-05T12:11:27.395Z,65.80
2019-03-05T12:13:58.251Z,66.10
2019-03-05T12:16:28.974Z,66.30
2019-03-05T12:18:59.173Z,65.90
2019-03-05T12:21:28.682Z,65.90
2019-03-05T12:23:57.446Z,65.20
2019-03-05T12:26:26.231Z,65.00
2019-03-05T12:28:55.237Z,65.30
2019-03-05T12:31:24.031Z,65.80
2019-03-05T12:33:54.065Z,66.00
2019-03-05T12:36:23.000Z,66.60
2019-03-05T12:38:55.219Z,67.30
2019-03-05T12:41:23.915Z,67.70
2019-03-05T12:43:53.212Z,67.70
2019-03-05T12:46:21.945Z,67.90
2019-03-05T12:48:51.403Z,68.30
2019-03-05T12:51:20.286Z,68.30
2019-03-05T12:53:49.591Z,68.10
2019-03-05T12:56:23.773Z,68.30
2019-03-05T12:58:51.964Z,68.50
2019-03-05T13:01:21.178Z,68.80
2019-03-05T13:03:50.016Z,68.50
2019-03-05T13:06:18.767Z,68.80
2019-03-05T13:08:47.567Z,68.80
2019-03-05T13:11:16.401Z,68.80
2019-03-05T13:13:47.650Z,68.60
2019-03-05T13:16:15.572Z,68.50
2019-03-05T13:18:45.158Z,68.30
2019-03-05T13:21:18.327Z,68.20
2019-03-05T13:23:46.576Z,68.50
2019-03-05T13:26:17.950Z,68.80
2019-03-05T13:28:48.279Z,68.60
2019-03-05T13:31:18.755Z,68.80
2019-03-05T13:33:47.534Z,69.00
2019-03-05T13:36:16.734Z,69.10
2019-03-05T13:38:46.422Z,68.90
2019-03-05T13:41:17.993Z,68.30
2019-03-05T13:43:48.254Z,67.40
2019-03-05T13:46:21.889Z,66.90
2019-03-05T13:48:59.257Z,66.80
2019-03-05T13:51:48.660Z,66.50
2019-03-05T13:54:26.659Z,65.00
2019-03-05T13:57:01.394Z,64.60
2019-03-05T13:59:35.155Z,62.60
2019-03-05T14:02:06.724Z,62.20
2019-03-05T14:04:59.477Z,61.40
2019-03-05T14:08:08.743Z,61.20
2019-03-05T14:10:37.682Z,60.30
2019-03-05T14:13:07.949Z,59.90
2019-03-05T14:15:37.116Z,59.00
2019-03-05T14:18:06.072Z,59.00
2019-03-05T14:20:35.511Z,59.10
2019-03-05T14:23:04.661Z,59.20
2019-03-05T14:25:35.596Z,58.30
2019-03-05T14:28:07.612Z,58.30
2019-03-05T14:30:36.370Z,58.20
2019-03-05T14:33:05.032Z,58.00
2019-03-05T14:35:35.327Z,57.80
2019-03-05T14:38:05.457Z,57.50
2019-03-05T14:40:34.404Z,57.50
2019-03-05T14:43:04.932Z,57.90
2019-03-05T14:45:35.441Z,57.00
2019-03-05T14:48:08.199Z,56.90
2019-03-05T14:50:40.075Z,56.70
2019-03-05T14:53:12.040Z,56.20
2019-03-05T14:55:41.669Z,56.40
2019-03-05T14:58:10.555Z,55.80
2019-03-05T15:00:41.666Z,55.70
2019-03-05T15:03:11.213Z,56.00
2019-03-05T15:05:42.340Z,56.60
2019-03-05T15:08:12.634Z,56.70
2019-03-05T15:10:41.626Z,56.70
2019-03-05T15:13:17.117Z,57.00
2019-03-05T15:15:42.345Z,57.20
2019-03-05T15:18:12.816Z,57.40
2019-03-05T15:20:42.812Z,57.40
2019-03-05T15:23:13.404Z,57.30
2019-03-05T15:25:42.529Z,57.70
2019-03-05T15:28:13.774Z,57.80
2019-03-05T15:30:46.697Z,57.60
2019-03-05T15:33:17.598Z,57.70
2019-03-05T15:35:48.720Z,57.90
2019-03-05T15:38:17.482Z,57.80
2019-03-05T15:40:46.906Z,57.50
2019-03-05T15:43:18.417Z,57.50
2019-03-05T15:45:50.977Z,57.00
2019-03-05T15:48:19.752Z,57.40
2019-03-05T15:50:48.727Z,58.30
2019-03-05T15:53:17.518Z,57.80
2019-03-05T15:55:47.216Z,58.20
2019-03-05T15:58:18.278Z,58.30
2019-03-05T16:00:48.086Z,58.60
2019-03-05T16:03:17.286Z,58.80
2019-03-05T16:05:47.072Z,59.00
2019-03-05T16:08:20.962Z,59.40
2019-03-05T16:10:50.397Z,59.50
2019-03-05T16:13:24.634Z,59.60
2019-03-05T16:15:57.603Z,59.70
2019-03-05T16:18:26.559Z,59.80
2019-03-05T16:21:02.600Z,62.70
2019-03-05T16:23:31.298Z,66.00
2019-03-05T16:26:01.942Z,68.60
2019-03-05T16:28:32.548Z,70.70
2019-03-05T16:31:11.321Z,74.50
2019-03-05T16:33:49.801Z,76.80
2019-03-05T16:36:37.751Z,79.00
2019-03-05T16:39:27.427Z,80.00
2019-03-05T16:42:17.005Z,79.50
2019-03-05T16:44:50.544Z,81.40
2019-03-05T16:47:37.281Z,81.00
2019-03-05T16:50:15.295Z,80.30
2019-03-05T16:53:04.885Z,80.70
2019-03-05T16:55:45.805Z,79.60
2019-03-05T16:58:29.898Z,79.70
2019-03-05T17:01:14.645Z,79.70
2019-03-05T17:04:04.221Z,79.50
2019-03-05T17:06:30.295Z,79.20
2019-03-05T17:09:10.677Z,78.70
2019-03-05T17:11:59.550Z,78.60
2019-03-05T17:14:29.951Z,79.10
2019-03-05T17:17:03.069Z,79.20
2019-03-05T17:19:31.862Z,78.60
2019-03-05T17:22:02.349Z,77.90
2019-03-05T17:24:44.456Z,77.50
2019-03-05T17:27:14.596Z,77.50
2019-03-05T17:29:43.310Z,77.80
2019-03-05T17:32:19.905Z,77.40
2019-03-05T17:34:49.708Z,76.60
2019-03-05T17:37:18.612Z,76.00
2019-03-05T17:39:52.488Z,76.00
2019-03-05T17:42:24.320Z,75.50
2019-03-05T17:44:54.424Z,75.30
2019-03-05T17:47:25.699Z,74.80
2019-03-05T17:49:59.074Z,75.00
2019-03-05T17:52:29.111Z,74.70
2019-03-05T17:54:59.323Z,74.70
2019-03-05T17:57:30.643Z,75.10
2019-03-05T18:00:04.469Z,74.30
2019-03-05T18:02:35.138Z,74.50
2019-03-05T18:05:04.813Z,74.90
2019-03-05T18:07:39.485Z,74.70
2019-03-05T18:10:12.487Z,75.00
2019-03-05T18:12:41.378Z,75.10
2019-03-05T18:15:13.532Z,75.20
2019-03-05T18:17:42.236Z,75.10
2019-03-05T18:20:14.420Z,75.00
2019-03-05T18:22:43.652Z,74.80
2019-03-05T18:25:18.217Z,74.80
2019-03-05T18:27:47.514Z,74.90
2019-03-05T18:30:19.803Z,74.60
2019-03-05T18:32:49.296Z,74.40
2019-03-05T18:35:18.402Z,74.40
2019-03-05T18:37:55.251Z,74.70
2019-03-05T18:40:26.358Z,74.20
2019-03-05T18:42:55.582Z,74.10
2019-03-05T18:45:29.700Z,74.00
2019-03-05T18:48:01.323Z,73.90
2019-03-05T18:50:31.816Z,73.90
2019-03-05T18:53:07.251Z,74.00
2019-03-05T18:55:36.101Z,74.00
2019-03-05T18:58:04.985Z,73.40
2019-03-05T19:00:38.507Z,73.20
2019-03-05T19:03:11.236Z,73.50
2019-03-05T19:05:40.179Z,73.80
2019-03-05T19:08:12.961Z,73.90
2019-03-05T19:10:42.477Z,74.00
2019-03-05T19:13:13.707Z,73.80
2019-03-05T19:15:44.190Z,73.60
2019-03-05T19:18:12.856Z,74.10
2019-03-05T19:20:44.772Z,73.90
2019-03-05T19:23:13.537Z,73.60
2019-03-05T19:25:44.713Z,74.00
2019-03-05T19:28:16.476Z,74.50
2019-03-05T19:30:50.804Z,74.60
2019-03-05T19:33:19.775Z,74.60
2019-03-05T19:35:52.180Z,74.00
2019-03-05T19:38:22.744Z,73.80
2019-03-05T19:40:51.627Z,73.50
2019-03-05T19:43:28.445Z,73.20
2019-03-05T19:45:58.204Z,73.20
2019-03-05T19:48:27.828Z,72.60
2019-03-05T19:50:59.050Z,72.10
2019-03-05T19:53:28.913Z,72.10
2019-03-05T19:55:59.110Z,71.80
2019-03-05T19:58:29.668Z,71.80
2019-03-05T20:01:10.891Z,71.30
2019-03-05T20:03:41.388Z,71.80
2019-03-05T20:06:11.817Z,71.60
2019-03-05T20:08:44.314Z,71.80
2019-03-05T20:11:15.984Z,71.50
2019-03-05T20:13:45.726Z,71.30
2019-03-05T20:16:17.249Z,71.60
2019-03-05T20:18:48.245Z,71.50
2019-03-05T20:21:20.173Z,71.70
2019-03-05T20:23:49.631Z,71.50
2019-03-05T20:26:20.748Z,71.80
2019-03-05T20:28:52.509Z,72.30
2019-03-05T20:31:21.240Z,72.70
2019-03-05T20:33:52.840Z,72.90
2019-03-05T20:36:24.599Z,73.40
2019-03-05T20:38:53.353Z,73.90
2019-03-05T20:41:22.754Z,74.30
2019-03-05T20:43:53.014Z,74.50
2019-03-05T20:46:23.844Z,75.00
2019-03-05T20:48:54.367Z,75.20
2019-03-05T20:51:24.797Z,75.10
2019-03-05T20:53:55.487Z,75.60
2019-03-05T20:56:25.264Z,75.90
2019-03-05T20:58:54.244Z,76.00
2019-03-05T21:01:27.421Z,76.50
2019-03-05T21:03:58.007Z,76.90
2019-03-05T21:06:29.456Z,77.00
2019-03-05T21:08:59.709Z,77.30
2019-03-05T21:11:28.456Z,77.50
2019-03-05T21:13:57.360Z,77.50
2019-03-05T21:16:28.439Z,77.70
2019-03-05T21:18:58.612Z,78.20
2019-03-05T21:21:33.196Z,78.80
2019-03-05T21:24:05.839Z,78.80
2019-03-05T21:26:35.210Z,79.00
2019-03-05T21:29:03.880Z,79.30
2019-03-05T21:31:35.416Z,80.30
2019-03-05T21:34:05.244Z,80.00
2019-03-05T21:36:38.641Z,80.20
2019-03-05T21:39:14.433Z,80.50
2019-03-05T21:41:44.454Z,80.70
2019-03-05T21:44:16.478Z,81.00
2019-03-05T21:46:51.266Z,81.30
2019-03-05T21:49:21.498Z,81.00
2019-03-05T21:51:50.964Z,81.00
2019-03-05T21:54:19.800Z,81.00
2019-03-05T21:56:48.771Z,81.30
2019-03-05T21:59:19.980Z,81.40
2019-03-05T22:01:49.179Z,81.70
2019-03-05T22:04:18.032Z,81.60
2019-03-05T22:06:46.788Z,81.60
2019-03-05T22:09:15.546Z,81.80
2019-03-05T22:11:44.577Z,82.10
2019-03-05T22:14:13.364Z,82.20
2019-03-05T22:16:42.190Z,82.30
2019-03-05T22:19:10.858Z,82.50
2019-03-05T22:21:41.355Z,82.40
2019-03-05T22:24:12.262Z,82.60
2019-03-05T22:26:41.518Z,82.60
2019-03-05T22:29:11.923Z,82.80
2019-03-05T22:31:42.203Z,82.60
2019-03-05T22:34:13.772Z,82.80
2019-03-05T22:36:42.537Z,83.10
2019-03-05T22:39:11.643Z,83.40
2019-03-05T22:41:40.289Z,83.60
2019-03-05T22:44:11.358Z,83.60
2019-03-05T22:46:40.332Z,83.90
2019-03-05T22:49:11.223Z,84.00
2019-03-05T22:51:45.705Z,84.50
2019-03-05T22:54:16.385Z,84.70
2019-03-05T22:56:45.320Z,85.10
2019-03-05T22:59:14.091Z,85.10
2019-03-05T23:01:44.751Z,85.40
2019-03-05T23:04:14.934Z,85.40
2019-03-05T23:06:43.791Z,85.50
2019-03-05T23:09:18.185Z,85.90
2019-03-05T23:11:46.993Z,86.20
2019-03-05T23:14:16.598Z,86.60
2019-03-05T23:16:45.766Z,86.50
2019-03-05T23:19:16.897Z,86.30
2019-03-05T23:21:45.775Z,86.50
2019-03-05T23:24:14.510Z,86.50
2019-03-05T23:26:45.248Z,86.50
2019-03-05T23:29:15.775Z,87.00
2019-03-05T23:31:44.888Z,87.00
2019-03-05T23:34:18.175Z,87.30
2019-03-05T23:36:48.434Z,87.70
2019-03-05T23:39:17.725Z,87.90
2019-03-05T23:41:46.416Z,88.60
2019-03-05T23:44:17.295Z,88.00
2019-03-05T23:46:46.730Z,88.00
2019-03-05T23:49:15.584Z,88.20
2019-03-05T23:51:44.529Z,88.50
2019-03-05T23:54:13.266Z,88.40
2019-03-05T23:56:42.492Z,88.40
2019-03-05T23:59:13.668Z,88.30
